Time;durP1;ratioP1;P1;durP2;ratioP2;P2;SDS_P1;SDS_P2;PMS_P1;PMS_P2;Temp;Humidity;BMP_temperature;BMP_pressure;BME280_temperature;BME280_humidity;BME280_pressure;Samples;Min_cycle;Max_cycle;Signal;HPM_P1;HPM_P2
2021/03/26 00:00:36;0.00;0.00;0.62;0.00;0.00;0.62;1.90;1.67;;;25.10;25.00;;;;;;2240159;62;20662;-62
2021/03/26 00:03:24;0.00;0.00;0.62;0.00;0.00;0.62;2.13;1.93;;;25.10;25.00;;;;;;2237709;61;20636;-62
2021/03/26 00:06:13;0.00;0.00;0.62;0.00;0.00;0.62;2.60;1.73;;;25.10;25.00;;;;;;2250243;62;20368;-62
2021/03/26 00:08:59;0.00;0.00;0.62;0.00;0.00;0.62;2.30;1.70;;;25.10;25.00;;;;;;2239698;62;20383;-60
2021/03/26 00:11:46;0.00;0.00;0.62;0.00;0.00;0.62;2.80;2.17;;;25.10;25.00;;;;;;2237879;62;20416;-65
2021/03/26 00:14:30;0.00;0.00;0.62;0.00;0.00;0.62;2.70;2.40;;;25.10;25.00;;;;;;2238436;62;20430;-65
2021/03/26 00:17:16;0.00;0.00;0.62;0.00;0.00;0.62;2.60;2.10;;;25.10;25.00;;;;;;2239324;62;20373;-61
2021/03/26 00:20:03;0.00;0.00;0.62;0.00;0.00;0.62;3.33;2.20;;;25.10;25.00;;;;;;2241961;58;20400;-60
2021/03/26 00:22:47;0.00;0.00;0.62;0.00;0.00;0.62;3.23;2.93;;;25.10;25.00;;;;;;2253799;62;20456;-63
2021/03/26 00:25:32;0.00;0.00;0.62;0.00;0.00;0.62;3.17;2.53;;;25.10;25.00;;;;;;2238997;62;20403;-62
2021/03/26 00:28:17;0.00;0.00;0.62;0.00;0.00;0.62;3.53;3.17;;;25.10;24.90;;;;;;2239753;62;20584;-59
2021/03/26 00:31:03;0.00;0.00;0.62;0.00;0.00;0.62;4.70;4.00;;;25.10;24.90;;;;;;2243228;62;20465;-63
2021/03/26 00:33:49;0.00;0.00;0.62;0.00;0.00;0.62;6.70;5.47;;;25.10;24.90;;;;;;2244205;62;20398;-63
2021/03/26 00:36:35;0.00;0.00;0.62;0.00;0.00;0.62;5.97;5.43;;;25.10;25.40;;;;;;2237347;62;20682;-63
2021/03/26 00:39:21;0.00;0.00;0.62;0.00;0.00;0.62;5.70;5.10;;;25.10;24.80;;;;;;2238351;62;20371;-61
2021/03/26 00:42:06;0.00;0.00;0.62;0.00;0.00;0.62;4.80;4.10;;;25.00;24.70;;;;;;2248244;62;20436;-62
2021/03/26 00:44:51;0.00;0.00;0.62;0.00;0.00;0.62;5.03;4.53;;;25.00;24.60;;;;;;2237609;61;20717;-61
2021/03/26 00:47:36;0.00;0.00;0.62;0.00;0.00;0.62;4.97;4.17;;;25.00;24.60;;;;;;2251208;62;20570;-61
2021/03/26 00:50:25;0.00;0.00;0.62;0.00;0.00;0.62;6.17;5.57;;;25.00;24.70;;;;;;2238249;62;20727;-61
2021/03/26 00:53:13;0.00;0.00;0.62;0.00;0.00;0.62;4.97;4.57;;;25.00;24.60;;;;;;2238452;62;20387;-61
2021/03/26 00:55:59;0.00;0.00;0.62;0.00;0.00;0.62;4.80;4.40;;;25.00;24.60;;;;;;2237758;62;20490;-59
2021/03/26 00:58:46;0.00;0.00;0.62;0.00;0.00;0.62;5.40;4.63;;;25.00;24.60;;;;;;2248437;62;20380;-59
2021/03/26 01:01:31;0.00;0.00;0.62;0.00;0.00;0.62;5.20;4.70;;;25.00;24.70;;;;;;2238306;62;20368;-60
2021/03/26 01:04:17;0.00;0.00;0.62;0.00;0.00;0.62;4.67;4.27;;;24.90;24.60;;;;;;2256828;62;20415;-61
2021/03/26 01:07:05;0.00;0.00;0.62;0.00;0.00;0.62;5.70;5.00;;;24.90;24.60;;;;;;2236870;62;20391;-60
2021/03/26 01:09:50;0.00;0.00;0.62;0.00;0.00;0.62;6.33;5.73;;;25.00;24.60;;;;;;2273079;58;20489;-61
2021/03/26 01:12:35;0.00;0.00;0.62;0.00;0.00;0.62;6.00;5.40;;;24.90;24.60;;;;;;2237570;62;20737;-59
2021/03/26 01:15:27;0.00;0.00;0.62;0.00;0.00;0.62;8.10;5.73;;;24.90;24.60;;;;;;2239840;62;20472;-62
2021/03/26 01:18:22;0.00;0.00;0.62;0.00;0.00;0.62;5.83;5.30;;;24.90;24.60;;;;;;2238570;62;20375;-61
2021/03/26 01:21:09;0.00;0.00;0.62;0.00;0.00;0.62;9.23;5.73;;;24.90;24.60;;;;;;2244148;62;20739;-61
2021/03/26 01:23:56;0.00;0.00;0.62;0.00;0.00;0.62;5.50;4.77;;;24.80;24.50;;;;;;2241662;61;20386;-61
2021/03/26 01:26:41;0.00;0.00;0.62;0.00;0.00;0.62;8.20;5.20;;;24.80;24.50;;;;;;2243137;62;20387;-62
2021/03/26 01:29:45;0.00;0.00;0.62;0.00;0.00;0.62;7.80;6.27;;;24.80;24.50;;;;;;2243487;58;20350;-62
2021/03/26 01:32:30;0.00;0.00;0.62;0.00;0.00;0.62;7.07;6.37;;;24.80;24.50;;;;;;2242796;62;20765;-61
2021/03/26 01:35:16;0.00;0.00;0.62;0.00;0.00;0.62;7.13;6.10;;;24.80;24.50;;;;;;2243993;62;20644;-61
2021/03/26 01:38:02;0.00;0.00;0.62;0.00;0.00;0.62;6.70;6.07;;;24.80;24.50;;;;;;2237281;62;20430;-61
2021/03/26 01:40:54;0.00;0.00;0.62;0.00;0.00;0.62;6.30;5.67;;;24.80;24.50;;;;;;2245790;62;20372;-61
2021/03/26 01:43:42;0.00;0.00;0.62;0.00;0.00;0.62;6.93;5.83;;;24.80;24.50;;;;;;2240100;62;20467;-60
2021/03/26 01:46:28;0.00;0.00;0.62;0.00;0.00;0.62;7.13;6.43;;;24.70;25.00;;;;;;2239087;62;20396;-62
2021/03/26 01:49:14;0.00;0.00;0.62;0.00;0.00;0.62;7.67;6.33;;;24.70;24.50;;;;;;2239746;62;20382;-62
2021/03/26 01:51:59;0.00;0.00;0.62;0.00;0.00;0.62;6.53;5.67;;;24.70;24.50;;;;;;2236700;62;20370;-62
2021/03/26 01:54:44;0.00;0.00;0.62;0.00;0.00;0.62;9.43;6.90;;;24.70;24.40;;;;;;2245846;61;20560;-61
2021/03/26 01:57:34;0.00;0.00;0.62;0.00;0.00;0.62;7.83;5.87;;;24.70;24.50;;;;;;2236741;62;20367;-60
2021/03/26 02:00:30;0.00;0.00;0.62;0.00;0.00;0.62;7.47;6.77;;;24.70;24.50;;;;;;2240389;58;20502;-62
2021/03/26 02:03:21;0.00;0.00;0.62;0.00;0.00;0.62;6.03;5.23;;;24.70;24.50;;;;;;2240492;62;20369;-60
2021/03/26 02:06:17;0.00;0.00;0.62;0.00;0.00;0.62;6.70;5.57;;;24.70;24.50;;;;;;2240197;62;20422;-61
2021/03/26 02:09:10;0.00;0.00;0.62;0.00;0.00;0.62;7.30;6.60;;;24.60;24.40;;;;;;2238029;62;20555;-61
2021/03/26 02:11:59;0.00;0.00;0.62;0.00;0.00;0.62;6.17;5.57;;;24.60;24.40;;;;;;2253705;58;20406;-61
2021/03/26 02:14:49;0.00;0.00;0.62;0.00;0.00;0.62;6.63;5.90;;;24.60;24.40;;;;;;2236624;61;20593;-61
2021/03/26 02:17:39;0.00;0.00;0.62;0.00;0.00;0.62;5.70;5.20;;;24.60;24.40;;;;;;2240945;58;20747;-62
2021/03/26 02:20:40;0.00;0.00;0.62;0.00;0.00;0.62;6.20;5.60;;;24.60;24.50;;;;;;2237839;62;20376;-61
2021/03/26 02:23:35;0.00;0.00;0.62;0.00;0.00;0.62;8.37;6.63;;;24.60;24.40;;;;;;2238195;61;20390;-61
2021/03/26 02:26:35;0.00;0.00;0.62;0.00;0.00;0.62;6.97;6.33;;;24.60;24.50;;;;;;2245738;58;20380;-61
2021/03/26 02:29:28;0.00;0.00;0.62;0.00;0.00;0.62;8.60;6.70;;;24.50;24.40;;;;;;2240710;62;20789;-61
2021/03/26 02:32:26;0.00;0.00;0.62;0.00;0.00;0.62;6.30;5.70;;;24.50;24.40;;;;;;2265571;58;20661;-61
2021/03/26 02:35:22;0.00;0.00;0.62;0.00;0.00;0.62;6.60;5.90;;;24.50;24.40;;;;;;2237448;62;20631;-62
2021/03/26 02:38:16;0.00;0.00;0.62;0.00;0.00;0.62;6.20;5.53;;;24.50;24.40;;;;;;2237875;62;20370;-61
2021/03/26 02:41:15;0.00;0.00;0.62;0.00;0.00;0.62;6.23;5.63;;;24.50;24.40;;;;;;2242083;62;20699;-61
2021/03/26 02:44:11;0.00;0.00;0.62;0.00;0.00;0.62;5.90;5.30;;;24.50;24.50;;;;;;2239691;61;20436;-61
2021/03/26 02:47:10;0.00;0.00;0.62;0.00;0.00;0.62;7.10;6.40;;;24.50;24.50;;;;;;2238038;62;20371;-61
2021/03/26 02:50:08;0.00;0.00;0.62;0.00;0.00;0.62;6.37;5.80;;;24.40;24.40;;;;;;2237197;62;20457;-61
2021/03/26 02:53:02;0.00;0.00;0.62;0.00;0.00;0.62;6.63;5.73;;;24.40;24.40;;;;;;2243355;62;20598;-61
2021/03/26 02:55:58;0.00;0.00;0.62;0.00;0.00;0.62;7.80;7.03;;;24.40;24.40;;;;;;2237709;62;20403;-61
2021/03/26 02:58:56;0.00;0.00;0.62;0.00;0.00;0.62;5.97;5.30;;;24.40;24.50;;;;;;2237898;62;20427;-64
2021/03/26 03:01:47;0.00;0.00;0.62;0.00;0.00;0.62;7.17;6.47;;;24.40;24.50;;;;;;2239328;62;20751;-61
2021/03/26 03:04:39;0.00;0.00;0.62;0.00;0.00;0.62;9.17;6.30;;;24.30;24.40;;;;;;2241968;62;20678;-61
2021/03/26 03:07:27;0.00;0.00;0.62;0.00;0.00;0.62;8.53;6.83;;;24.40;24.50;;;;;;2238110;62;20693;-61
2021/03/26 03:10:50;0.00;0.00;0.62;0.00;0.00;0.62;6.77;6.07;;;24.30;24.50;;;;;;2250348;62;20507;-61
2021/03/26 03:13:43;0.00;0.00;0.62;0.00;0.00;0.62;7.50;6.67;;;24.30;24.50;;;;;;2236630;62;20408;-62
2021/03/26 03:16:40;0.00;0.00;0.62;0.00;0.00;0.62;6.90;6.17;;;24.30;24.50;;;;;;2241182;58;20413;-61
2021/03/26 03:19:34;0.00;0.00;0.62;0.00;0.00;0.62;7.20;5.90;;;24.30;24.60;;;;;;2241680;62;20787;-62
2021/03/26 03:22:27;0.00;0.00;0.62;0.00;0.00;0.62;6.23;5.63;;;24.20;24.50;;;;;;2241292;62;20749;-60
2021/03/26 03:25:18;0.00;0.00;0.62;0.00;0.00;0.62;6.67;6.07;;;24.30;24.50;;;;;;2242395;58;20382;-62
2021/03/26 03:28:19;0.00;0.00;0.62;0.00;0.00;0.62;6.80;6.10;;;24.20;24.50;;;;;;2236689;62;20383;-60
2021/03/26 03:31:31;0.00;0.00;0.62;0.00;0.00;0.62;6.80;6.10;;;24.20;24.50;;;;;;2244171;62;20379;-60
2021/03/26 03:34:28;0.00;0.00;0.62;0.00;0.00;0.62;6.40;5.80;;;24.20;24.50;;;;;;2237577;61;20397;-61
2021/03/26 03:37:23;0.00;0.00;0.62;0.00;0.00;0.62;7.47;6.77;;;24.20;24.50;;;;;;2237929;62;20598;-62
2021/03/26 03:40:16;0.00;0.00;0.62;0.00;0.00;0.62;9.00;7.03;;;24.20;24.50;;;;;;2237769;62;20600;-61
2021/03/26 03:43:07;0.00;0.00;0.62;0.00;0.00;0.62;7.07;6.03;;;24.20;24.50;;;;;;2240995;62;20388;-62
2021/03/26 03:46:02;0.00;0.00;0.62;0.00;0.00;0.62;7.30;6.60;;;24.20;24.50;;;;;;2237946;62;20368;-60
2021/03/26 03:49:32;0.00;0.00;0.62;0.00;0.00;0.62;7.60;6.47;;;24.10;24.40;;;;;;2246344;59;20376;-61
2021/03/26 03:52:24;0.00;0.00;0.62;0.00;0.00;0.62;7.17;6.47;;;24.10;24.50;;;;;;2257513;58;20376;-61
2021/03/26 03:55:14;0.00;0.00;0.62;0.00;0.00;0.62;7.20;6.50;;;24.10;24.50;;;;;;2236947;62;20436;-61
2021/03/26 03:58:13;0.00;0.00;0.62;0.00;0.00;0.62;7.40;6.70;;;24.10;24.50;;;;;;2239201;62;20359;-60
2021/03/26 04:01:07;0.00;0.00;0.62;0.00;0.00;0.62;7.10;6.40;;;24.00;24.40;;;;;;2238121;62;20623;-61
2021/03/26 04:03:57;0.00;0.00;0.62;0.00;0.00;0.62;7.77;6.97;;;24.00;24.50;;;;;;2236349;62;20407;-60
2021/03/26 04:06:51;0.00;0.00;0.62;0.00;0.00;0.62;8.67;6.57;;;24.00;24.50;;;;;;2238207;62;20366;-61
2021/03/26 04:09:43;0.00;0.00;0.62;0.00;0.00;0.62;8.50;7.10;;;24.00;24.40;;;;;;2239062;62;20482;-60
2021/03/26 04:12:35;0.00;0.00;0.62;0.00;0.00;0.62;6.93;5.87;;;24.00;24.50;;;;;;2249344;62;20425;-60
2021/03/26 04:15:35;0.00;0.00;0.62;0.00;0.00;0.62;10.53;6.40;;;24.00;24.50;;;;;;2247067;62;20427;-61
2021/03/26 04:18:32;0.00;0.00;0.62;0.00;0.00;0.62;6.67;5.93;;;24.00;24.50;;;;;;2234127;62;20372;-61
2021/03/26 04:21:36;0.00;0.00;0.62;0.00;0.00;0.62;8.77;6.40;;;24.00;24.50;;;;;;2239081;62;20775;-62
2021/03/26 04:24:43;0.00;0.00;0.62;0.00;0.00;0.62;5.70;5.10;;;23.90;24.40;;;;;;2249949;61;20443;-61
2021/03/26 04:27:41;0.00;0.00;0.62;0.00;0.00;0.62;8.10;7.30;;;23.90;24.40;;;;;;2268808;62;20371;-62
2021/03/26 04:30:52;0.00;0.00;0.62;0.00;0.00;0.62;7.50;6.80;;;23.90;24.40;;;;;;2244323;62;20370;-61
2021/03/26 04:33:51;0.00;0.00;0.62;0.00;0.00;0.62;8.00;7.07;;;23.90;24.40;;;;;;2241715;61;20406;-61
2021/03/26 04:36:46;0.00;0.00;0.62;0.00;0.00;0.62;8.00;6.50;;;23.90;24.40;;;;;;2257969;62;20366;-61
2021/03/26 04:39:56;0.00;0.00;0.62;0.00;0.00;0.62;7.53;6.73;;;23.80;24.40;;;;;;2244664;62;20386;-62
2021/03/26 04:42:51;0.00;0.00;0.62;0.00;0.00;0.62;7.10;6.40;;;23.90;24.50;;;;;;2240690;58;20469;-61
2021/03/26 04:45:47;0.00;0.00;0.62;0.00;0.00;0.62;8.03;6.73;;;23.80;24.40;;;;;;2237575;62;20410;-61
2021/03/26 04:49:03;0.00;0.00;0.62;0.00;0.00;0.62;7.80;6.47;;;23.80;24.50;;;;;;2234687;62;20428;-61
2021/03/26 04:52:22;0.00;0.00;0.62;0.00;0.00;0.62;7.10;6.00;;;23.80;24.50;;;;;;2254829;58;20382;-59
2021/03/26 04:55:14;0.00;0.00;0.62;0.00;0.00;0.62;7.43;6.63;;;23.80;24.50;;;;;;2237963;58;20447;-60
2021/03/26 04:58:29;0.00;0.00;0.62;0.00;0.00;0.62;8.33;7.10;;;23.80;24.50;;;;;;2244143;59;20752;-60
2021/03/26 05:01:33;0.00;0.00;0.62;0.00;0.00;0.62;13.10;6.63;;;23.70;24.50;;;;;;2262815;58;20360;-59
2021/03/26 05:04:30;0.00;0.00;0.62;0.00;0.00;0.62;11.00;6.50;;;23.70;24.50;;;;;;2243204;62;20396;-60
2021/03/26 05:07:21;0.00;0.00;0.62;0.00;0.00;0.62;11.23;7.20;;;23.70;25.00;;;;;;2237508;62;20374;-60
2021/03/26 05:10:18;0.00;0.00;0.62;0.00;0.00;0.62;9.67;6.50;;;23.70;24.60;;;;;;2245450;62;20482;-59
2021/03/26 05:13:15;0.00;0.00;0.62;0.00;0.00;0.62;7.70;6.90;;;23.80;24.60;;;;;;2250566;61;20427;-60
2021/03/26 05:16:08;0.00;0.00;0.62;0.00;0.00;0.62;9.67;6.03;;;23.70;24.50;;;;;;2237092;62;20975;-62
2021/03/26 05:19:18;0.00;0.00;0.62;0.00;0.00;0.62;11.80;7.50;;;23.80;24.60;;;;;;2250098;62;20428;-60
2021/03/26 05:22:19;0.00;0.00;0.62;0.00;0.00;0.62;7.77;6.50;;;23.70;24.50;;;;;;2237207;62;20401;-59
2021/03/26 05:25:37;0.00;0.00;0.62;0.00;0.00;0.62;8.33;6.30;;;23.70;24.50;;;;;;2240022;62;20414;-62
2021/03/26 05:28:24;0.00;0.00;0.62;0.00;0.00;0.62;6.43;5.83;;;23.70;24.50;;;;;;2248294;62;20375;-61
2021/03/26 05:31:37;0.00;0.00;0.62;0.00;0.00;0.62;6.90;5.70;;;23.70;24.50;;;;;;2236635;62;20363;-62
2021/03/26 05:34:33;0.00;0.00;0.62;0.00;0.00;0.62;8.80;6.80;;;23.70;24.50;;;;;;2248454;62;20439;-61
2021/03/26 05:37:27;0.00;0.00;0.62;0.00;0.00;0.62;10.63;6.27;;;23.70;24.60;;;;;;2242353;62;20835;-62
2021/03/26 05:40:51;0.00;0.00;0.62;0.00;0.00;0.62;7.93;6.77;;;23.70;24.60;;;;;;2245801;58;21362;-59
2021/03/26 05:44:32;0.00;0.00;0.62;0.00;0.00;0.62;9.83;6.87;;;23.70;24.60;;;;;;2249312;62;20410;-61
2021/03/26 05:47:43;0.00;0.00;0.62;0.00;0.00;0.62;7.40;6.30;;;23.70;24.60;;;;;;2237225;62;20353;-62
2021/03/26 05:51:00;0.00;0.00;0.62;0.00;0.00;0.62;7.40;6.40;;;23.60;24.50;;;;;;2243819;62;20372;-61
2021/03/26 05:54:16;0.00;0.00;0.62;0.00;0.00;0.62;8.00;6.50;;;23.60;24.50;;;;;;2236817;61;20721;-59
2021/03/26 05:57:24;0.00;0.00;0.62;0.00;0.00;0.62;7.07;6.03;;;23.60;24.50;;;;;;2237228;62;20603;-62
2021/03/26 06:01:12;0.00;0.00;0.62;0.00;0.00;0.62;8.37;6.30;;;23.60;24.50;;;;;;2249155;62;20597;-62
2021/03/26 06:05:13;0.00;0.00;0.62;0.00;0.00;0.62;7.43;6.30;;;23.60;24.50;;;;;;2239600;62;20403;-60
2021/03/26 06:08:50;0.00;0.00;0.62;0.00;0.00;0.62;7.10;6.40;;;23.60;24.50;;;;;;2270771;59;20387;-64
2021/03/26 06:13:34;0.00;0.00;0.62;0.00;0.00;0.62;7.27;6.57;;;23.60;24.50;;;;;;2235499;59;20451;-63
2021/03/26 06:16:52;0.00;0.00;0.62;0.00;0.00;0.62;8.17;7.27;;;23.60;24.50;;;;;;2224477;59;20588;-64
2021/03/26 06:20:19;0.00;0.00;0.62;0.00;0.00;0.62;7.10;6.40;;;23.50;24.50;;;;;;2249705;62;20388;-64
2021/03/26 06:24:20;0.00;0.00;0.62;0.00;0.00;0.62;8.53;7.20;;;23.50;24.50;;;;;;2250333;59;20398;-63
2021/03/26 06:27:27;0.00;0.00;0.62;0.00;0.00;0.62;10.37;7.70;;;23.50;24.50;;;;;;2236965;62;20367;-62
2021/03/26 06:30:29;0.00;0.00;0.62;0.00;0.00;0.62;8.03;7.23;;;23.50;24.50;;;;;;2239644;61;20362;-64
2021/03/26 06:34:14;0.00;0.00;0.62;0.00;0.00;0.62;9.40;7.90;;;23.50;24.60;;;;;;2242445;61;20395;-64
2021/03/26 06:37:54;0.00;0.00;0.62;0.00;0.00;0.62;8.20;7.40;;;23.50;24.50;;;;;;2239972;62;20599;-64
2021/03/26 06:40:51;0.00;0.00;0.62;0.00;0.00;0.62;7.13;6.40;;;23.50;24.60;;;;;;2236826;62;20458;-63
2021/03/26 06:44:32;0.00;0.00;0.62;0.00;0.00;0.62;8.37;6.57;;;23.40;24.50;;;;;;2237830;62;20616;-64
2021/03/26 06:47:30;0.00;0.00;0.62;0.00;0.00;0.62;10.60;7.50;;;23.40;24.50;;;;;;2245876;62;20379;-65
2021/03/26 06:50:38;0.00;0.00;0.62;0.00;0.00;0.62;7.00;5.70;;;23.40;24.60;;;;;;2238390;62;20386;-64
2021/03/26 06:53:34;0.00;0.00;0.62;0.00;0.00;0.62;5.23;4.73;;;23.40;24.60;;;;;;2252553;59;20378;-64
2021/03/26 06:56:56;0.00;0.00;0.62;0.00;0.00;0.62;6.23;5.20;;;23.40;24.60;;;;;;2238133;58;20423;-63
2021/03/26 07:00:06;0.00;0.00;0.62;0.00;0.00;0.62;5.00;4.17;;;23.40;24.60;;;;;;2244527;62;20418;-64
2021/03/26 07:03:31;0.00;0.00;0.62;0.00;0.00;0.62;4.67;3.97;;;23.40;24.60;;;;;;2253376;62;20387;-62
2021/03/26 07:06:52;0.00;0.00;0.62;0.00;0.00;0.62;4.20;3.63;;;23.40;24.60;;;;;;2243682;62;20366;-63
2021/03/26 07:10:00;0.00;0.00;0.62;0.00;0.00;0.62;6.13;3.93;;;23.40;24.60;;;;;;2243184;58;20810;-64
2021/03/26 07:13:12;0.00;0.00;0.62;0.00;0.00;0.62;3.37;3.07;;;23.50;24.70;;;;;;2246204;58;20825;-63
2021/03/26 07:16:14;0.00;0.00;0.62;0.00;0.00;0.62;3.90;3.40;;;23.50;24.70;;;;;;2239572;58;20717;-64
2021/03/26 07:19:19;0.00;0.00;0.62;0.00;0.00;0.62;4.20;3.80;;;23.50;24.70;;;;;;2237525;62;20433;-65
2021/03/26 07:22:32;0.00;0.00;0.62;0.00;0.00;0.62;3.67;3.37;;;23.50;24.70;;;;;;2242778;58;20702;-64
2021/03/26 07:25:32;0.00;0.00;0.62;0.00;0.00;0.62;3.43;2.80;;;23.50;24.70;;;;;;2243745;58;20474;-63
2021/03/26 07:28:35;0.00;0.00;0.62;0.00;0.00;0.62;3.10;2.83;;;23.50;24.70;;;;;;2290303;58;20397;-65
2021/03/26 07:31:36;0.00;0.00;0.62;0.00;0.00;0.62;3.60;2.90;;;23.50;24.70;;;;;;2238603;62;20378;-64
2021/03/26 07:34:30;0.00;0.00;0.62;0.00;0.00;0.62;3.03;2.07;;;23.50;24.70;;;;;;2243679;61;20439;-63
2021/03/26 07:37:26;0.00;0.00;0.62;0.00;0.00;0.62;4.83;2.97;;;23.50;24.70;;;;;;2239374;62;20699;-63
2021/03/26 07:40:36;0.00;0.00;0.62;0.00;0.00;0.62;4.43;3.37;;;23.60;24.70;;;;;;2248787;58;20382;-63
2021/03/26 07:43:37;0.00;0.00;0.62;0.00;0.00;0.62;3.63;2.73;;;23.60;24.70;;;;;;2250739;62;20399;-64
2021/03/26 07:47:02;0.00;0.00;0.62;0.00;0.00;0.62;3.20;2.67;;;23.60;24.70;;;;;;2238496;62;20372;-65
2021/03/26 07:50:11;0.00;0.00;0.62;0.00;0.00;0.62;3.13;2.77;;;23.60;24.70;;;;;;2247036;62;20403;-63
2021/03/26 07:53:18;0.00;0.00;0.62;0.00;0.00;0.62;2.90;2.67;;;23.60;24.70;;;;;;2238384;62;20594;-65
2021/03/26 07:56:23;0.00;0.00;0.62;0.00;0.00;0.62;2.70;2.50;;;23.60;24.70;;;;;;2248234;62;20398;-65
2021/03/26 07:59:43;0.00;0.00;0.62;0.00;0.00;0.62;3.53;2.67;;;23.60;24.70;;;;;;2253997;58;20416;-64
2021/03/26 08:02:40;0.00;0.00;0.62;0.00;0.00;0.62;2.47;2.00;;;23.60;24.70;;;;;;2242028;58;20448;-64
2021/03/26 08:05:31;0.00;0.00;0.62;0.00;0.00;0.62;3.07;2.27;;;23.70;24.80;;;;;;2239033;58;20480;-63
2021/03/26 08:08:46;0.00;0.00;0.62;0.00;0.00;0.62;2.63;2.40;;;23.70;24.70;;;;;;2248840;58;20371;-65
2021/03/26 08:11:57;0.00;0.00;0.62;0.00;0.00;0.62;5.13;2.60;;;23.70;24.70;;;;;;2253938;58;20385;-64
2021/03/26 08:15:14;0.00;0.00;0.62;0.00;0.00;0.62;2.90;2.60;;;23.70;24.70;;;;;;2241633;58;20702;-63
2021/03/26 08:18:22;0.00;0.00;0.62;0.00;0.00;0.62;2.87;2.50;;;23.70;24.70;;;;;;2238286;62;20372;-65
2021/03/26 08:21:17;0.00;0.00;0.62;0.00;0.00;0.62;3.80;2.90;;;23.70;24.70;;;;;;2255280;58;20730;-62
2021/03/26 08:24:39;0.00;0.00;0.62;0.00;0.00;0.62;2.60;2.40;;;23.70;24.70;;;;;;2237196;58;20407;-65
2021/03/26 08:27:43;0.00;0.00;0.62;0.00;0.00;0.62;2.60;2.40;;;23.80;24.80;;;;;;2248423;62;20380;-64
2021/03/26 08:30:47;0.00;0.00;0.62;0.00;0.00;0.62;3.90;2.93;;;23.80;24.80;;;;;;2259104;58;20406;-63
2021/03/26 08:34:03;0.00;0.00;0.62;0.00;0.00;0.62;2.97;2.43;;;23.80;24.80;;;;;;2237186;62;20736;-62
2021/03/26 08:36:55;0.00;0.00;0.62;0.00;0.00;0.62;2.73;2.40;;;23.80;24.80;;;;;;2246664;62;20461;-62
2021/03/26 08:39:44;0.00;0.00;0.62;0.00;0.00;0.62;2.97;2.67;;;23.80;24.80;;;;;;2237646;62;20405;-63
2021/03/26 08:42:34;0.00;0.00;0.62;0.00;0.00;0.62;2.80;2.23;;;23.80;24.80;;;;;;2242250;58;20495;-65
2021/03/26 08:45:31;0.00;0.00;0.62;0.00;0.00;0.62;2.60;2.20;;;23.90;24.80;;;;;;2237541;58;20723;-65
2021/03/26 08:48:33;0.00;0.00;0.62;0.00;0.00;0.62;2.30;2.10;;;23.90;24.80;;;;;;2248491;58;20420;-65
2021/03/26 08:51:55;0.00;0.00;0.62;0.00;0.00;0.62;2.33;2.13;;;23.90;24.80;;;;;;2248510;58;20374;-65
2021/03/26 08:55:11;0.00;0.00;0.62;0.00;0.00;0.62;2.70;2.50;;;23.90;24.80;;;;;;2244178;58;20688;-65
2021/03/26 08:58:15;0.00;0.00;0.62;0.00;0.00;0.62;2.30;2.03;;;23.90;24.80;;;;;;2239457;58;20376;-65
2021/03/26 09:01:43;0.00;0.00;0.62;0.00;0.00;0.62;3.03;2.20;;;24.00;24.80;;;;;;2237699;58;20432;-63
2021/03/26 09:04:58;0.00;0.00;0.62;0.00;0.00;0.62;2.60;2.33;;;24.00;24.80;;;;;;2232480;59;20395;-63
2021/03/26 09:08:00;0.00;0.00;0.62;0.00;0.00;0.62;2.73;2.33;;;24.00;24.90;;;;;;2243843;62;20413;-64
2021/03/26 09:11:34;0.00;0.00;0.62;0.00;0.00;0.62;2.20;2.00;;;24.00;24.80;;;;;;2244160;62;20382;-65
2021/03/26 09:15:09;0.00;0.00;0.62;0.00;0.00;0.62;2.20;1.80;;;24.00;24.80;;;;;;2240348;62;20948;-64
2021/03/26 09:18:01;0.00;0.00;0.62;0.00;0.00;0.62;2.73;2.53;;;24.00;24.80;;;;;;2247863;58;20656;-65
2021/03/26 09:20:57;0.00;0.00;0.62;0.00;0.00;0.62;2.60;2.37;;;24.10;24.90;;;;;;2238374;62;20652;-65
2021/03/26 09:24:08;0.00;0.00;0.62;0.00;0.00;0.62;2.80;2.20;;;24.10;24.90;;;;;;2240410;61;20472;-65
2021/03/26 09:27:07;0.00;0.00;0.62;0.00;0.00;0.62;2.70;2.20;;;24.10;24.90;;;;;;2239300;58;20776;-65
2021/03/26 09:29:54;0.00;0.00;0.62;0.00;0.00;0.62;2.30;2.10;;;24.10;24.90;;;;;;2252930;58;20384;-65
2021/03/26 09:32:24;0.00;0.00;0.62;0.00;0.00;0.62;3.10;2.17;;;24.10;24.80;;;;;;2237604;62;20383;-63
2021/03/26 09:35:15;0.00;0.00;0.62;0.00;0.00;0.62;2.40;2.20;;;24.20;24.90;;;;;;2238325;62;20415;-65
2021/03/26 09:38:07;0.00;0.00;0.62;0.00;0.00;0.62;2.80;2.57;;;24.20;24.90;;;;;;2236622;62;20484;-65
2021/03/26 09:41:06;0.00;0.00;0.62;0.00;0.00;0.62;2.57;2.37;;;24.20;24.90;;;;;;2247963;58;20619;-65
2021/03/26 09:43:59;0.00;0.00;0.62;0.00;0.00;0.62;2.30;2.10;;;24.20;24.90;;;;;;2251554;58;20403;-65
2021/03/26 09:46:49;0.00;0.00;0.62;0.00;0.00;0.62;3.10;2.43;;;24.30;25.50;;;;;;2239899;62;20372;-65
2021/03/26 09:49:40;0.00;0.00;0.62;0.00;0.00;0.62;2.23;2.03;;;24.30;24.90;;;;;;2238121;62;20375;-65
2021/03/26 09:52:30;0.00;0.00;0.62;0.00;0.00;0.62;2.20;1.97;;;24.30;24.90;;;;;;2259956;58;20743;-65
2021/03/26 09:55:24;0.00;0.00;0.62;0.00;0.00;0.62;2.50;2.30;;;24.30;24.90;;;;;;2237031;62;20774;-65
2021/03/26 09:58:23;0.00;0.00;0.62;0.00;0.00;0.62;2.97;2.47;;;24.30;24.90;;;;;;2237771;62;20732;-65
2021/03/26 10:01:13;0.00;0.00;0.62;0.00;0.00;0.62;2.47;2.20;;;24.40;24.90;;;;;;2240390;58;20370;-64
2021/03/26 10:04:05;0.00;0.00;0.62;0.00;0.00;0.62;2.73;2.07;;;24.40;24.90;;;;;;2239710;58;20403;-63
2021/03/26 10:07:12;0.00;0.00;0.62;0.00;0.00;0.62;2.40;2.00;;;24.40;24.90;;;;;;2235861;62;20383;-65
2021/03/26 10:13:15;0.00;0.00;0.62;0.00;0.00;0.62;2.40;2.20;;;24.50;24.90;;;;;;2260501;58;20424;-64
2021/03/26 10:16:04;0.00;0.00;0.62;0.00;0.00;0.62;2.20;2.00;;;24.50;25.50;;;;;;2240378;58;20413;-64
2021/03/26 10:18:58;0.00;0.00;0.62;0.00;0.00;0.62;2.27;1.97;;;24.50;24.90;;;;;;2238793;62;20375;-65
2021/03/26 10:21:52;0.00;0.00;0.62;0.00;0.00;0.62;2.43;2.23;;;24.60;25.00;;;;;;2257038;58;20387;-65
2021/03/26 10:24:37;0.00;0.00;0.62;0.00;0.00;0.62;2.40;2.20;;;24.60;24.90;;;;;;2242958;62;20416;-65
2021/03/26 10:27:29;0.00;0.00;0.62;0.00;0.00;0.62;2.10;1.83;;;24.60;24.90;;;;;;2246519;58;20597;-64
2021/03/26 10:30:23;0.00;0.00;0.62;0.00;0.00;0.62;2.63;2.00;;;24.60;24.90;;;;;;2239906;58;20629;-65
2021/03/26 10:33:12;0.00;0.00;0.62;0.00;0.00;0.62;2.20;1.80;;;24.70;25.00;;;;;;2240937;58;20380;-65
2021/03/26 10:36:04;0.00;0.00;0.62;0.00;0.00;0.62;2.30;2.00;;;24.70;25.00;;;;;;2244800;62;20399;-65
2021/03/26 10:38:52;0.00;0.00;0.62;0.00;0.00;0.62;3.00;2.70;;;24.70;25.00;;;;;;2241310;62;20493;-65
2021/03/26 10:41:52;0.00;0.00;0.62;0.00;0.00;0.62;2.20;1.77;;;24.70;24.90;;;;;;2239271;58;20419;-65
2021/03/26 10:45:05;0.00;0.00;0.62;0.00;0.00;0.62;2.47;1.90;;;24.70;24.90;;;;;;2237943;58;20394;-65
2021/03/26 10:47:54;0.00;0.00;0.62;0.00;0.00;0.62;1.87;1.63;;;24.80;25.00;;;;;;2242779;62;20378;-65
2021/03/26 10:51:28;0.00;0.00;0.62;0.00;0.00;0.62;2.30;2.10;;;24.80;25.10;;;;;;2240836;62;20689;-65
2021/03/26 10:54:23;0.00;0.00;0.62;0.00;0.00;0.62;2.40;2.00;;;24.80;24.90;;;;;;2238499;61;20752;-65
2021/03/26 10:57:32;0.00;0.00;0.62;0.00;0.00;0.62;2.30;2.10;;;24.80;24.90;;;;;;2247451;62;20799;-65
2021/03/26 11:00:22;0.00;0.00;0.62;0.00;0.00;0.62;2.10;1.90;;;24.90;25.00;;;;;;2238175;62;20414;-65
2021/03/26 11:03:14;0.00;0.00;0.62;0.00;0.00;0.62;4.40;2.07;;;24.90;25.00;;;;;;2239666;58;20423;-65
2021/03/26 11:06:08;0.00;0.00;0.62;0.00;0.00;0.62;1.97;1.73;;;24.90;24.90;;;;;;2252934;58;20395;-65
2021/03/26 11:09:03;0.00;0.00;0.62;0.00;0.00;0.62;2.50;1.97;;;25.00;25.00;;;;;;2239017;58;20370;-65
2021/03/26 11:11:57;0.00;0.00;0.62;0.00;0.00;0.62;2.13;1.77;;;25.00;25.00;;;;;;2245916;62;20375;-65
2021/03/26 11:14:52;0.00;0.00;0.62;0.00;0.00;0.62;2.00;1.80;;;25.00;25.50;;;;;;2240493;61;20461;-65
2021/03/26 11:17:53;0.00;0.00;0.62;0.00;0.00;0.62;2.10;1.90;;;25.00;24.90;;;;;;2247001;62;20594;-64
2021/03/26 11:20:48;0.00;0.00;0.62;0.00;0.00;0.62;1.80;1.60;;;25.10;25.00;;;;;;2237423;62;20383;-64
2021/03/26 11:23:38;0.00;0.00;0.62;0.00;0.00;0.62;1.80;1.47;;;25.10;25.00;;;;;;2238164;58;20399;-64
2021/03/26 11:26:30;0.00;0.00;0.62;0.00;0.00;0.62;1.93;1.67;;;25.10;25.00;;;;;;2238603;58;20368;-64
2021/03/26 11:29:22;0.00;0.00;0.62;0.00;0.00;0.62;2.20;1.67;;;25.20;25.00;;;;;;2246654;62;20500;-64
2021/03/26 11:32:13;0.00;0.00;0.62;0.00;0.00;0.62;1.90;1.70;;;25.20;25.00;;;;;;2252795;58;20581;-64
2021/03/26 11:35:03;0.00;0.00;0.62;0.00;0.00;0.62;1.57;1.30;;;25.20;24.90;;;;;;2270253;58;20435;-64
2021/03/26 11:37:52;0.00;0.00;0.62;0.00;0.00;0.62;2.07;1.70;;;25.20;24.90;;;;;;2243645;58;20403;-64
2021/03/26 11:40:44;0.00;0.00;0.62;0.00;0.00;0.62;1.93;1.73;;;25.20;24.90;;;;;;2260082;58;20411;-64
2021/03/26 11:43:38;0.00;0.00;0.62;0.00;0.00;0.62;1.70;1.40;;;25.30;24.90;;;;;;2247423;58;20607;-64
2021/03/26 11:46:26;0.00;0.00;0.62;0.00;0.00;0.62;1.97;1.73;;;25.30;24.90;;;;;;2238862;62;20372;-65
2021/03/26 11:49:19;0.00;0.00;0.62;0.00;0.00;0.62;1.83;1.70;;;25.30;24.90;;;;;;2262300;58;20368;-65
2021/03/26 11:52:09;0.00;0.00;0.62;0.00;0.00;0.62;1.80;1.60;;;25.40;24.90;;;;;;2246065;58;20427;-65